PWSweather.com
Personal Weather Stations
Station Observations
KNHRINDG3
Converse Meadow Pond, Rindge, NH 03461

Converse Meadow PondRindge, NH 03461

Lat: 42.74, Lon: -71.98

Elevation: 1060

Station Type: Davis Vantage Pro 2

http://nhwoodworker.com/weather/index.php

Latest ConditionsUpdated 8:30:02 AM EST Friday, Dec 19, 2014
Currently Today's Max Today's Min Today's Average
Temperature 28.8°F-1.8°C 31.0°F-0.6°C 28.6°F-1.9°C 29.5°F-1.4°C
Dew Point 24.3°F-4.3°C 27.0°F-2.8°C 24.1°F-4.4°C 25.5°F-3.6°C
Winds 3.5 mph N5.6 kmh N 4.6 mph WNW7.4 kmh WNW - 1.8 mph 2.9 kmh
Wind Gusts 3.5 mph5.6 kmh 10.4 mph16.7 kmh - -
Humidity 83% 86% 83% 85%
Pressure 29.92 in1013.2 mb 29.93 in1013.5 mb 29.85 in1010.8 mb -
Hour Temp Dew Point Humidity Winds Wind Gusts Pressure Precip Precip Rate Daily Precip Total
08:30 AM 28.8°F-1.8°C 24.3°F-4.3°C 83% 3.5 mph N5.6 kmh N 3.5 mph5.6 kmh 29.92 in1013.2 mb 0.00 in0.0 mm 0.00 in/hr0.0 mm/hr 0.00 in0.0 mm
08:20 AM 28.7°F-1.8°C 24.5°F-4.2°C 84% 1.2 mph NE1.9 kmh NE 3.5 mph5.6 kmh 29.93 in1013.5 mb 0.00 in0.0 mm 0.00 in/hr0.0 mm/hr 0.00 in0.0 mm
08:10 AM 28.6°F-1.9°C 24.1°F-4.4°C 83% 2.3 mph NNW3.7 kmh NNW 3.5 mph5.6 kmh 29.93 in1013.5 mb 0.00 in0.0 mm 0.00 in/hr0.0 mm/hr 0.00 in0.0 mm
08:00 AM 28.7°F-1.8°C 24.2°F-4.3°C 83% 4.6 mph WNW7.4 kmh WNW 10.4 mph16.7 kmh 29.92 in1013.2 mb 0.00 in0.0 mm 0.00 in/hr0.0 mm/hr 0.00 in0.0 mm
07:50 AM 28.6°F-1.9°C 24.4°F-4.2°C 84% 3.5 mph W5.6 kmh W 3.5 mph5.6 kmh 29.91 in1012.9 mb 0.00 in0.0 mm 0.00 in/hr0.0 mm/hr 0.00 in0.0 mm
07:40 AM 28.7°F-1.8°C 24.8°F-4.0°C 85% 1.2 mph NNW1.9 kmh NNW 3.5 mph5.6 kmh 29.91 in1012.9 mb 0.00 in0.0 mm 0.00 in/hr0.0 mm/hr 0.00 in0.0 mm
07:30 AM 28.7°F-1.8°C 24.8°F-4.0°C 85% Calm Calm 1.2 mph1.9 kmh 29.91 in1012.9 mb 0.00 in0.0 mm 0.00 in/hr0.0 mm/hr 0.00 in0.0 mm
07:20 AM 28.7°F-1.8°C 24.5°F-4.2°C 84% 1.2 mph WSW1.9 kmh WSW 8.1 mph13.0 kmh 29.90 in1012.5 mb 0.00 in0.0 mm 0.00 in/hr0.0 mm/hr 0.00 in0.0 mm
07:10 AM 28.7°F-1.8°C 24.5°F-4.2°C 84% 1.2 mph SW1.9 kmh SW 2.3 mph3.7 kmh 29.90 in1012.5 mb 0.00 in0.0 mm 0.00 in/hr0.0 mm/hr 0.00 in0.0 mm
07:00 AM 28.8°F-1.8°C 24.6°F-4.1°C 84% 2.3 mph WNW3.7 kmh WNW 3.5 mph5.6 kmh 29.90 in1012.5 mb 0.00 in0.0 mm 0.00 in/hr0.0 mm/hr 0.00 in0.0 mm
06:50 AM 28.8°F-1.8°C 24.9°F-3.9°C 85% 1.2 mph NE1.9 kmh NE 2.3 mph3.7 kmh 29.90 in1012.5 mb 0.00 in0.0 mm 0.00 in/hr0.0 mm/hr 0.00 in0.0 mm
06:40 AM 28.9°F-1.7°C 24.6°F-4.1°C 84% 2.3 mph NNW3.7 kmh NNW 3.5 mph5.6 kmh 29.89 in1012.2 mb 0.00 in0.0 mm 0.00 in/hr0.0 mm/hr 0.00 in0.0 mm
06:30 AM 28.9°F-1.7°C 24.7°F-4.1°C 84% 3.5 mph SW5.6 kmh SW 3.5 mph5.6 kmh 29.89 in1012.2 mb 0.00 in0.0 mm 0.00 in/hr0.0 mm/hr 0.00 in0.0 mm
06:20 AM 29.0°F-1.7°C 25.1°F-3.8°C 85% 2.3 mph N3.7 kmh N 3.5 mph5.6 kmh 29.89 in1012.2 mb 0.00 in0.0 mm 0.00 in/hr0.0 mm/hr 0.00 in0.0 mm
06:10 AM 29.1°F-1.6°C 25.2°F-3.8°C 85% 1.2 mph ENE1.9 kmh ENE 3.5 mph5.6 kmh 29.89 in1012.2 mb 0.00 in0.0 mm 0.00 in/hr0.0 mm/hr 0.00 in0.0 mm
06:00 AM 29.1°F-1.6°C 25.2°F-3.8°C 85% 1.2 mph NE1.9 kmh NE 1.2 mph1.9 kmh 29.88 in1011.9 mb 0.00 in0.0 mm 0.00 in/hr0.0 mm/hr 0.00 in0.0 mm
05:50 AM 29.1°F-1.6°C 25.2°F-3.8°C 85% 1.2 mph NNW1.9 kmh NNW 2.3 mph3.7 kmh 29.88 in1011.9 mb 0.00 in0.0 mm 0.00 in/hr0.0 mm/hr 0.00 in0.0 mm
05:40 AM 29.2°F-1.6°C 25.3°F-3.7°C 85% 2.3 mph NNE3.7 kmh NNE 5.8 mph9.3 kmh 29.88 in1011.9 mb 0.00 in0.0 mm 0.00 in/hr0.0 mm/hr 0.00 in0.0 mm
05:30 AM 29.2°F-1.6°C 25.3°F-3.7°C 85% 1.2 mph NW1.9 kmh NW 2.3 mph3.7 kmh 29.87 in1011.5 mb 0.00 in0.0 mm 0.00 in/hr0.0 mm/hr 0.00 in0.0 mm
05:20 AM 29.3°F-1.5°C 25.3°F-3.7°C 85% 1.2 mph WNW1.9 kmh WNW 3.5 mph5.6 kmh 29.87 in1011.5 mb 0.00 in0.0 mm 0.00 in/hr0.0 mm/hr 0.00 in0.0 mm
05:10 AM 29.3°F-1.5°C 25.4°F-3.7°C 85% 1.2 mph NW1.9 kmh NW 3.5 mph5.6 kmh 29.87 in1011.5 mb 0.00 in0.0 mm 0.00 in/hr0.0 mm/hr 0.00 in0.0 mm
05:00 AM 29.3°F-1.5°C 25.1°F-3.8°C 84% 1.2 mph N1.9 kmh N 9.2 mph14.8 kmh 29.87 in1011.5 mb 0.00 in0.0 mm 0.00 in/hr0.0 mm/hr 0.00 in0.0 mm
04:50 AM 29.4°F-1.4°C 25.4°F-3.7°C 85% 2.3 mph NNE3.7 kmh NNE 3.5 mph5.6 kmh 29.87 in1011.5 mb 0.00 in0.0 mm 0.00 in/hr0.0 mm/hr 0.00 in0.0 mm
04:40 AM 29.4°F-1.4°C 25.2°F-3.8°C 84% Calm Calm 2.3 mph3.7 kmh 29.87 in1011.5 mb 0.00 in0.0 mm 0.00 in/hr0.0 mm/hr 0.00 in0.0 mm
04:30 AM 29.5°F-1.4°C 25.5°F-3.6°C 85% 2.3 mph NW3.7 kmh NW 9.2 mph14.8 kmh 29.86 in1011.2 mb 0.00 in0.0 mm 0.00 in/hr0.0 mm/hr 0.00 in0.0 mm
04:20 AM 29.6°F-1.3°C 25.9°F-3.4°C 86% Calm Calm 1.2 mph1.9 kmh 29.86 in1011.2 mb 0.00 in0.0 mm 0.00 in/hr0.0 mm/hr 0.00 in0.0 mm
04:10 AM 29.6°F-1.3°C 25.9°F-3.4°C 86% 2.3 mph NNE3.7 kmh NNE 3.5 mph5.6 kmh 29.86 in1011.2 mb 0.00 in0.0 mm 0.00 in/hr0.0 mm/hr 0.00 in0.0 mm
04:00 AM 29.7°F-1.3°C 26.0°F-3.3°C 86% 1.2 mph NNW1.9 kmh NNW 3.5 mph5.6 kmh 29.86 in1011.2 mb 0.00 in0.0 mm 0.00 in/hr0.0 mm/hr 0.00 in0.0 mm
03:50 AM 29.7°F-1.3°C 26.0°F-3.3°C 86% 1.2 mph N1.9 kmh N 1.2 mph1.9 kmh 29.86 in1011.2 mb 0.00 in0.0 mm 0.00 in/hr0.0 mm/hr 0.00 in0.0 mm
03:40 AM 29.7°F-1.3°C 26.0°F-3.3°C 86% 2.3 mph NE3.7 kmh NE 4.6 mph7.4 kmh 29.86 in1011.2 mb 0.00 in0.0 mm 0.00 in/hr0.0 mm/hr 0.00 in0.0 mm
03:30 AM 29.8°F-1.2°C 26.1°F-3.3°C 86% 2.3 mph N3.7 kmh N 6.9 mph11.1 kmh 29.86 in1011.2 mb 0.00 in0.0 mm 0.00 in/hr0.0 mm/hr 0.00 in0.0 mm
03:20 AM 29.8°F-1.2°C 26.1°F-3.3°C 86% 2.3 mph NNW3.7 kmh NNW 3.5 mph5.6 kmh 29.86 in1011.2 mb 0.00 in0.0 mm 0.00 in/hr0.0 mm/hr 0.00 in0.0 mm
01:40 AM 30.5°F-0.8°C 26.5°F-3.1°C 85% 1.2 mph NW1.9 kmh NW 2.3 mph3.7 kmh 29.86 in1011.2 mb 0.00 in0.0 mm 0.00 in/hr0.0 mm/hr 0.00 in0.0 mm
01:30 AM 30.5°F-0.8°C 26.5°F-3.1°C 85% 2.3 mph N3.7 kmh N 4.6 mph7.4 kmh 29.86 in1011.2 mb 0.00 in0.0 mm 0.00 in/hr0.0 mm/hr 0.00 in0.0 mm
01:20 AM 30.5°F-0.8°C 26.5°F-3.1°C 85% 1.2 mph SW1.9 kmh SW 3.5 mph5.6 kmh 29.86 in1011.2 mb 0.00 in0.0 mm 0.00 in/hr0.0 mm/hr 0.00 in0.0 mm
12:50 AM 30.8°F-0.7°C 26.8°F-2.9°C 85% 2.3 mph NNW3.7 kmh NNW 5.8 mph9.3 kmh 29.85 in1010.8 mb 0.00 in0.0 mm 0.00 in/hr0.0 mm/hr 0.00 in0.0 mm
12:40 AM 30.8°F-0.7°C 26.8°F-2.9°C 85% 3.5 mph NNW5.6 kmh NNW 3.5 mph5.6 kmh 29.85 in1010.8 mb 0.00 in0.0 mm 0.00 in/hr0.0 mm/hr 0.00 in0.0 mm
12:30 AM 30.8°F-0.7°C 26.9°F-2.8°C 85% 2.3 mph WSW3.7 kmh WSW 3.5 mph5.6 kmh 29.86 in1011.2 mb 0.00 in0.0 mm 0.00 in/hr0.0 mm/hr 0.00 in0.0 mm
12:20 AM 30.9°F-0.6°C 26.9°F-2.8°C 85% 2.3 mph WSW3.7 kmh WSW 3.5 mph5.6 kmh 29.86 in1011.2 mb 0.00 in0.0 mm 0.00 in/hr0.0 mm/hr 0.00 in0.0 mm
12:10 AM 31.0°F-0.6°C 27.0°F-2.8°C 85% 1.2 mph NNW1.9 kmh NNW 3.5 mph5.6 kmh 29.85 in1010.8 mb 0.00 in0.0 mm 0.00 in/hr0.0 mm/hr 0.00 in0.0 mm
12:00 AM 31.0°F-0.6°C 27.0°F-2.8°C 85% 2.3 mph NW3.7 kmh NW 3.5 mph5.6 kmh 29.86 in1011.2 mb 0.00 in0.0 mm 0.00 in/hr0.0 mm/hr 0.00 in0.0 mm